Sidney Municipal-Lloyd W Carr Field
KSNY : now visible

Airfield :











YOU CAN JOIN US ON...

 
LOGIN :

Register | Disclaimer

   EN    FR    IT 

 









Legend :    VFR   Marginal VFR   IFR   Intensive IFR   Very Intensive IFR
Visi :
Ceiling :
>= 8 km
>= 3000ft
5 to 8 km
1000 to 3000 ft
1500m to 5 km
500 to 1000 ft
800 to 1500m
200 to 500 ft
< 800m
< 200 ft
Symbols :   Thunderstorms  Fog  Heavy snow  Heavy precipitations  Wind > 20 kt







- Airport Elevation : 4313 ft


KSNY - Sidney Municipal-Lloyd W Carr Field

CURRENT METAR :
  • 192253Z AUTO 06010KT 10SM BKN042 10/00 A2997 RMK AO2 SLP147 T01000000

EXPIRED METARs :
  • 192153Z AUTO 06011G16KT 10SM SCT040 11/01 A2997 RMK AO2 SLP144 T01110006
  • 192053Z AUTO 02008G14KT 350V070 10SM FEW040 11/01 A2998 RMK AO2 SLP150 T01110006 58005

TAF KSNY
Valid from the 19 at 18:00 until the 20 at 18:00 UTC


191742Z 1918/2018 33014KT P6SM SCT040 SCT100
FM192300 08014KT P6SM BKN120
FM200800 10016KT P6SM BKN020
FM201200 10016KT 6SM -SHRA BR OVC008
FM201500 10017G27KT 4SM -RA BR OVC007
KZDV FIR / North America



MET'MAP, your aeronautical weather chart ! - Copyright ORBIFLY December 2007 - Disclaimer

ORBIFLY MET'MAP TEAM :

Programming & Development : Alexandra Zaïnal
Concept & Development : Baudouin d'Aumeries
Co-Development & Prog : Marc-Olivier Méhu
Technical & hardware support : Manuel Goepfert

Contact : metmap@orbifly.com




SOURCES & CREDITS :

   NOAA       Earth
Advisory